This is the latest recevied weather packets stored in our database for station/object KI4FRU. If no packets are shown the sender has not sent any weather packets the latest 1 day(s).
| Time | Temp. | Humidity | Pressure | Rain* | Wind** | Luminosity | Snow |
|---|---|---|---|---|---|---|---|
| 1836274856 | 17.78° C | 99% | 1058 hPa | 0 mm | 0 m/s | 0 W/m² | - |
| 1836274554 | 18.33° C | 99% | 1058 hPa | 0 mm | 0 m/s | 0 W/m² | - |
| 1836274408 | 17.78° C | 99% | 1058 hPa | 0 mm | 0 m/s | 0 W/m² | - |
| 1836274252 | 17.78° C | 99% | 1057.6 hPa | 0 mm | 0 m/s | 0 W/m² | - |
| 1836273952 | 18.33° C | 99% | 1057.7 hPa | 0 mm | 0 m/s | 0 W/m² | - |
| 1778030542 | 19.44° C | 67% | 1052.7 hPa | 0 mm | 0 m/s | 0 W/m² | - |
| 1778030239 | 20° C | 66% | 1052.8 hPa | 0 mm | 0 m/s | 0 W/m² | - |
| 1778029935 | 20° C | 66% | 1052.9 hPa | 0 mm | 0 m/s | 0 W/m² | - |
| 1778029634 | 20.56° C | 65% | 1052.7 hPa | 0 mm | 0 m/s | 0 W/m² | - |
| 1778029331 | 20.56° C | 63% | 1052.8 hPa | 0 mm | 0 m/s | 0 W/m² | - |
| 1778029028 | 21.11° C | 62% | 1052.6 hPa | 0 mm | 0 m/s | 0 W/m² | - |
| 1778028725 | 21.11° C | 61% | 1052.8 hPa | 0 mm | 0 m/s | 0 W/m² | - |
| 1778028421 | 21.67° C | 60% | 1052.6 hPa | 0 mm | 0 m/s | 0 W/m² | - |
| 1778028119 | 21.67° C | 60% | 1052.6 hPa | 0 mm | 0 m/s | 0 W/m² | - |
| 1778027814 | 21.67° C | 60% | 1052.6 hPa | 0 mm | 0 m/s | 0 W/m² | - |
| 1778027511 | 21.67° C | 59% | 1052.5 hPa | 0 mm | 0 m/s | 0 W/m² | - |
| 1778027207 | 22.22° C | 58% | 1052.6 hPa | 0 mm | 0 m/s | 0 W/m² | - |
| 1778026903 | 22.22° C | 59% | 1052.6 hPa | 0 mm | 0 m/s | 1 W/m² | - |
| 1778026599 | 22.78° C | 58% | 1052.5 hPa | 0 mm | 0 m/s | 2 W/m² | - |
| 1778026297 | 22.78° C | 57% | 1052.2 hPa | 0 mm | 0 m/s | 3 W/m² | - |
| 1778025994 | 22.78° C | 57% | 1052.5 hPa | 0 mm | 0 m/s | 4 W/m² | - |
| 1778025691 | 23.33° C | 55% | 1052.4 hPa | 0 mm | 0 m/s | 6 W/m² | - |
| 1778025389 | 23.33° C | 55% | 1052.3 hPa | 0 mm | 0 m/s | 7 W/m² | - |
| 1778025086 | 23.33° C | 55% | 1052.4 hPa | 0 mm | 0 m/s | 10 W/m² | - |
| 1778024782 | 23.33° C | 56% | 1052.5 hPa | 0 mm | 0 m/s | 9 W/m² | - |
* Rain latest hour (hover to see other rain measurements)
** Current wind speed in m/s (hover to see current wind gust speed)